createdAt,value
2018-02-20T00:01:08.626Z,26.77
2018-02-20T00:03:35.260Z,32.33
2018-02-20T00:06:01.875Z,37.00
2018-02-20T00:08:28.512Z,30.80
2018-02-20T00:10:55.153Z,23.40
2018-02-20T00:13:21.753Z,28.07
2018-02-20T00:15:48.384Z,28.87
2018-02-20T00:18:14.988Z,36.40
2018-02-20T00:20:41.596Z,32.93
2018-02-20T00:23:08.212Z,29.43
2018-02-20T00:25:34.834Z,29.63
2018-02-20T00:28:01.460Z,37.03
2018-02-20T00:30:28.075Z,25.57
2018-02-20T00:32:54.721Z,26.60
2018-02-20T00:35:21.351Z,31.63
2018-02-20T00:37:47.961Z,34.83
2018-02-20T00:40:14.551Z,33.30
2018-02-20T00:42:41.190Z,33.40
2018-02-20T00:45:07.784Z,34.00
2018-02-20T00:47:34.395Z,27.67
2018-02-20T00:50:00.977Z,27.90
2018-02-20T00:52:27.585Z,26.50
2018-02-20T00:54:54.193Z,31.93
2018-02-20T00:57:20.811Z,28.87
2018-02-20T00:59:47.443Z,34.20
2018-02-20T01:02:14.037Z,31.23
2018-02-20T01:04:40.646Z,28.37
2018-02-20T01:07:07.292Z,31.57
2018-02-20T01:09:33.873Z,30.53
2018-02-20T01:12:00.478Z,30.17
2018-02-20T01:14:27.082Z,30.33
2018-02-20T01:16:53.707Z,29.80
2018-02-20T01:19:20.343Z,30.23
2018-02-20T01:21:46.976Z,31.30
2018-02-20T01:24:13.573Z,30.17
2018-02-20T01:26:40.177Z,29.50
2018-02-20T01:29:06.799Z,27.73
2018-02-20T01:31:33.398Z,31.97
2018-02-20T01:34:00.029Z,27.67
2018-02-20T01:36:26.651Z,28.90
2018-02-20T01:38:53.277Z,27.90
2018-02-20T01:41:19.873Z,33.97
2018-02-20T01:43:46.529Z,36.13
2018-02-20T01:46:13.104Z,35.73
2018-02-20T01:48:39.781Z,32.50
2018-02-20T01:51:08.206Z,35.40
2018-02-20T01:53:34.852Z,31.27
2018-02-20T01:56:01.433Z,35.93
2018-02-20T01:58:28.048Z,32.10
2018-02-20T02:00:54.660Z,40.07
2018-02-20T02:03:21.282Z,36.63
2018-02-20T02:05:47.892Z,38.70
2018-02-20T02:08:14.480Z,41.60
2018-02-20T02:10:41.106Z,36.07
2018-02-20T02:13:07.706Z,45.67
2018-02-20T02:15:34.334Z,39.07
2018-02-20T02:18:00.945Z,44.27
2018-02-20T02:20:27.552Z,47.80
2018-02-20T02:22:54.170Z,42.97
2018-02-20T02:25:20.752Z,39.67
2018-02-20T02:27:47.368Z,45.07
2018-02-20T02:30:14.021Z,41.53
2018-02-20T02:32:40.619Z,44.33
2018-02-20T02:35:07.211Z,40.83
2018-02-20T02:37:33.859Z,44.27
2018-02-20T02:40:00.460Z,38.27
2018-02-20T02:42:27.066Z,46.00
2018-02-20T02:44:53.656Z,44.07
2018-02-20T02:47:20.276Z,41.67
2018-02-20T02:49:46.882Z,40.97
2018-02-20T02:52:13.505Z,47.10
2018-02-20T02:54:40.121Z,43.50
2018-02-20T02:57:06.728Z,47.10
2018-02-20T02:59:33.367Z,43.07
2018-02-20T03:02:00.000Z,40.47
2018-02-20T03:04:26.601Z,43.20
2018-02-20T03:06:53.226Z,47.53
2018-02-20T03:09:19.864Z,43.87
2018-02-20T03:11:46.455Z,42.53
2018-02-20T03:14:13.060Z,48.90
2018-02-20T03:16:39.682Z,47.27
2018-02-20T03:19:06.274Z,48.27
2018-02-20T03:21:32.912Z,43.37
2018-02-20T03:23:59.504Z,53.47
2018-02-20T03:26:26.103Z,46.00
2018-02-20T03:28:52.732Z,47.47
2018-02-20T03:31:19.346Z,38.60
2018-02-20T03:33:45.968Z,46.30
2018-02-20T03:36:12.575Z,50.80
2018-02-20T03:38:39.179Z,44.23
2018-02-20T03:41:05.799Z,39.70
2018-02-20T03:43:32.423Z,44.03
2018-02-20T03:45:59.022Z,41.43
2018-02-20T03:48:25.616Z,42.30
2018-02-20T03:50:52.229Z,46.87
2018-02-20T03:53:18.854Z,40.60
2018-02-20T03:55:45.473Z,42.20
2018-02-20T03:58:12.110Z,53.23
2018-02-20T04:00:38.725Z,44.47
2018-02-20T04:03:05.332Z,46.70
2018-02-20T04:05:31.949Z,42.77
2018-02-20T04:07:58.606Z,44.07
2018-02-20T04:10:25.224Z,36.40
2018-02-20T04:12:51.815Z,40.10
2018-02-20T04:15:18.496Z,48.10
2018-02-20T04:17:45.114Z,41.60
2018-02-20T04:20:11.731Z,49.80
2018-02-20T04:22:38.335Z,43.53
2018-02-20T04:25:04.977Z,42.10
2018-02-20T04:27:31.576Z,44.33
2018-02-20T04:29:58.200Z,40.80
2018-02-20T04:32:24.801Z,46.37
2018-02-20T04:34:51.466Z,45.93
2018-02-20T04:37:18.082Z,48.00
2018-02-20T04:39:44.703Z,40.63
2018-02-20T04:42:11.322Z,45.47
2018-02-20T04:44:37.921Z,44.10
2018-02-20T04:47:04.544Z,45.73
2018-02-20T04:49:31.152Z,52.53
2018-02-20T04:51:57.793Z,47.87
2018-02-20T04:54:24.412Z,43.63
2018-02-20T04:56:51.877Z,45.27
2018-02-20T04:59:18.510Z,44.77
2018-02-20T05:01:45.134Z,48.87
2018-02-20T05:04:11.718Z,43.03
2018-02-20T05:06:38.339Z,51.37
2018-02-20T05:09:04.988Z,44.77
2018-02-20T05:11:31.617Z,43.40
2018-02-20T05:13:58.200Z,42.17
2018-02-20T05:16:24.841Z,47.70
2018-02-20T05:18:51.431Z,52.23
2018-02-20T05:21:18.044Z,48.77
2018-02-20T05:23:44.711Z,38.40
2018-02-20T05:26:11.397Z,44.30
2018-02-20T05:28:38.008Z,47.20
2018-02-20T05:31:04.611Z,45.87
2018-02-20T05:33:31.231Z,46.63
2018-02-20T05:35:57.828Z,45.00
2018-02-20T05:38:24.466Z,43.70
2018-02-20T05:40:51.068Z,48.20
2018-02-20T05:43:17.702Z,53.67
2018-02-20T05:45:44.326Z,44.00
2018-02-20T05:48:10.938Z,47.53
2018-02-20T05:50:37.555Z,46.50
2018-02-20T05:53:04.371Z,47.80
2018-02-20T05:55:30.997Z,47.40
2018-02-20T05:57:57.600Z,56.80
2018-02-20T06:00:24.223Z,47.07
2018-02-20T06:02:50.828Z,45.40
2018-02-20T06:05:17.854Z,44.00
2018-02-20T06:07:44.445Z,54.47
2018-02-20T06:10:11.096Z,52.40
2018-02-20T06:12:37.671Z,55.30
2018-02-20T06:15:04.357Z,56.07
2018-02-20T06:17:31.008Z,56.50
2018-02-20T06:19:57.620Z,51.60
2018-02-20T06:22:24.757Z,45.30
2018-02-20T06:24:51.382Z,49.13
2018-02-20T06:27:17.991Z,46.87
2018-02-20T06:29:44.604Z,54.70
2018-02-20T06:32:11.212Z,48.17
2018-02-20T06:34:37.916Z,53.00
2018-02-20T06:37:04.557Z,52.53
2018-02-20T06:39:31.171Z,52.63
2018-02-20T06:41:57.809Z,51.67
2018-02-20T06:44:24.408Z,53.80
2018-02-20T06:46:51.196Z,45.53
2018-02-20T06:49:17.880Z,49.03
2018-02-20T06:51:44.524Z,53.90
2018-02-20T06:54:11.160Z,58.07
2018-02-20T06:56:37.796Z,52.33
2018-02-20T06:59:04.410Z,51.23
2018-02-20T07:01:31.013Z,55.20
2018-02-20T07:03:57.758Z,52.60
2018-02-20T07:09:53.730Z,45.67
2018-02-20T07:12:20.400Z,49.53
2018-02-20T07:14:46.978Z,51.23
2018-02-20T07:17:13.606Z,50.33
2018-02-20T07:19:40.210Z,52.70
2018-02-20T07:22:06.888Z,46.37
2018-02-20T07:24:33.521Z,40.40
2018-02-20T07:27:00.133Z,49.53
2018-02-20T07:29:26.756Z,51.90
2018-02-20T07:31:53.376Z,56.70
2018-02-20T07:34:19.974Z,52.60
2018-02-20T07:36:46.565Z,55.13
2018-02-20T07:39:13.265Z,46.30
2018-02-20T07:41:39.852Z,56.77
2018-02-20T07:44:06.466Z,51.10
2018-02-20T07:46:33.111Z,47.67
2018-02-20T07:48:59.736Z,50.50
2018-02-20T07:51:26.404Z,49.17
2018-02-20T07:53:53.032Z,53.50
2018-02-20T07:56:19.672Z,50.83
2018-02-20T07:58:46.348Z,47.90
2018-02-20T08:01:12.966Z,55.90
2018-02-20T08:03:39.571Z,46.27
2018-02-20T08:06:06.184Z,53.43
2018-02-20T08:08:32.876Z,57.50
2018-02-20T08:10:59.549Z,53.40
2018-02-20T08:13:26.118Z,46.00
2018-02-20T08:15:52.777Z,46.33
2018-02-20T08:18:19.395Z,53.00
2018-02-20T08:20:45.991Z,51.83
2018-02-20T08:23:12.665Z,51.07
2018-02-20T08:25:39.312Z,56.37
2018-02-20T08:28:05.949Z,55.50
2018-02-20T08:30:32.584Z,41.73
2018-02-20T08:32:59.178Z,55.43
2018-02-20T08:35:25.774Z,51.13
2018-02-20T08:37:52.422Z,49.43
2018-02-20T08:40:19.234Z,49.70
2018-02-20T08:42:45.810Z,54.40
2018-02-20T08:45:12.451Z,53.40
2018-02-20T08:47:39.056Z,48.20
2018-02-20T08:50:05.686Z,50.63
2018-02-20T08:52:32.289Z,50.50
2018-02-20T08:54:58.947Z,60.70
2018-02-20T08:57:25.552Z,55.57
2018-02-20T08:59:52.179Z,53.53
2018-02-20T09:02:18.776Z,52.13
2018-02-20T09:04:45.413Z,51.23
2018-02-20T09:07:12.052Z,55.00
2018-02-20T09:09:38.671Z,56.13
2018-02-20T09:12:05.260Z,47.70
2018-02-20T09:14:31.847Z,52.83
2018-02-20T09:16:58.464Z,54.63
2018-02-20T09:19:25.093Z,49.03
2018-02-20T09:21:51.687Z,54.20
2018-02-20T09:24:18.316Z,54.23
2018-02-20T09:26:44.958Z,59.73
2018-02-20T09:29:11.570Z,53.03
2018-02-20T09:31:38.188Z,53.67
2018-02-20T09:34:04.965Z,53.00
2018-02-20T09:36:31.578Z,49.70
2018-02-20T09:38:58.176Z,50.80
2018-02-20T09:41:24.816Z,46.30
2018-02-20T09:43:51.416Z,52.77
2018-02-20T09:46:18.033Z,49.87
2018-02-20T09:48:44.688Z,51.63
2018-02-20T09:51:11.315Z,53.57
2018-02-20T09:53:37.920Z,60.23
2018-02-20T09:56:04.583Z,50.73
2018-02-20T09:58:31.198Z,56.37
2018-02-20T10:00:57.787Z,53.00
2018-02-20T10:03:24.398Z,55.10
2018-02-20T10:05:51.020Z,48.80
2018-02-20T10:08:17.687Z,48.90
2018-02-20T10:10:44.272Z,47.63
2018-02-20T10:13:10.918Z,51.97
2018-02-20T10:15:37.563Z,55.50
2018-02-20T10:18:04.254Z,52.47
2018-02-20T10:20:30.858Z,54.40
2018-02-20T10:22:57.502Z,68.80
2018-02-20T10:25:24.121Z,48.93
2018-02-20T10:27:50.751Z,52.77
2018-02-20T10:30:17.358Z,55.93
2018-02-20T10:32:43.997Z,51.33
2018-02-20T10:35:10.808Z,55.67
2018-02-20T10:37:37.434Z,51.93
2018-02-20T10:40:04.078Z,49.10
2018-02-20T10:42:30.785Z,51.07
2018-02-20T10:44:57.399Z,54.07
2018-02-20T10:47:23.993Z,48.67
2018-02-20T10:49:50.608Z,50.63
2018-02-20T10:52:17.212Z,57.77
2018-02-20T10:54:43.927Z,48.80
2018-02-20T10:57:10.597Z,54.87
2018-02-20T10:59:37.220Z,51.67
2018-02-20T11:02:03.843Z,59.07
2018-02-20T11:04:30.458Z,52.87
2018-02-20T11:06:57.091Z,60.33
2018-02-20T11:09:23.808Z,54.67
2018-02-20T11:11:50.412Z,54.70
2018-02-20T11:14:17.004Z,48.77
2018-02-20T11:16:44.390Z,62.17
2018-02-20T11:19:10.221Z,55.93
2018-02-20T11:21:36.833Z,54.33
2018-02-20T11:24:03.428Z,49.73
2018-02-20T11:26:30.066Z,56.13
2018-02-20T11:28:56.660Z,52.67
2018-02-20T11:31:23.272Z,50.20
2018-02-20T11:33:50.312Z,69.43
2018-02-20T11:36:16.942Z,60.23
2018-02-20T11:38:43.567Z,55.87
2018-02-20T11:41:10.180Z,54.60
2018-02-20T11:43:36.791Z,53.70
2018-02-20T11:46:03.402Z,51.80
2018-02-20T11:48:30.000Z,54.43
2018-02-20T11:50:56.662Z,50.07
2018-02-20T11:53:23.351Z,50.43
2018-02-20T11:55:49.956Z,51.73
2018-02-20T11:58:16.618Z,48.57
2018-02-20T12:00:43.232Z,46.33
2018-02-20T12:03:09.842Z,51.60
2018-02-20T12:05:36.493Z,53.37
2018-02-20T12:08:03.125Z,50.30
2018-02-20T12:10:30.066Z,43.97
2018-02-20T12:12:56.673Z,43.13
2018-02-20T12:15:23.282Z,47.73
2018-02-20T12:17:49.928Z,42.90
2018-02-20T12:20:16.557Z,39.80
2018-02-20T12:22:43.190Z,30.00
2018-02-20T12:25:09.790Z,47.37
2018-02-20T12:27:36.446Z,34.40
2018-02-20T12:30:03.074Z,32.30
2018-02-20T12:32:29.727Z,30.47
2018-02-20T12:34:56.722Z,40.60
2018-02-20T12:37:23.325Z,35.30
2018-02-20T12:39:49.940Z,40.90
2018-02-20T12:42:16.548Z,39.50
2018-02-20T12:44:43.183Z,33.17
2018-02-20T12:47:09.810Z,37.50
2018-02-20T12:49:36.485Z,32.80
2018-02-20T12:52:03.116Z,36.57
2018-02-20T12:54:29.711Z,31.00
2018-02-20T12:56:56.335Z,31.87
2018-02-20T12:59:22.969Z,32.10
2018-02-20T13:01:49.565Z,32.20
2018-02-20T13:04:16.177Z,32.93
2018-02-20T13:06:42.815Z,31.60
2018-02-20T13:09:09.446Z,33.07
2018-02-20T13:11:36.052Z,35.70
2018-02-20T13:14:02.666Z,38.93
2018-02-20T13:16:29.331Z,44.00
2018-02-20T13:18:55.964Z,42.13
2018-02-20T13:21:22.564Z,45.63
2018-02-20T13:23:49.183Z,44.80
2018-02-20T13:26:15.817Z,49.63
2018-02-20T13:28:42.401Z,52.27
2018-02-20T13:31:09.015Z,50.37
2018-02-20T13:33:35.665Z,49.07
2018-02-20T13:36:02.319Z,58.87
2018-02-20T13:38:29.007Z,54.10
2018-02-20T13:40:55.708Z,51.63
2018-02-20T13:43:22.312Z,46.67
2018-02-20T13:45:48.929Z,44.17
2018-02-20T13:48:15.744Z,54.20
2018-02-20T13:50:42.652Z,50.17
2018-02-20T13:53:09.309Z,51.40
2018-02-20T13:55:36.054Z,58.03
2018-02-20T13:58:02.771Z,45.77
2018-02-20T14:00:29.392Z,57.90
2018-02-20T14:02:56.015Z,49.27
2018-02-20T14:05:22.638Z,44.67
2018-02-20T14:07:49.274Z,48.57
2018-02-20T14:10:15.925Z,43.97
2018-02-20T14:12:42.581Z,53.00
2018-02-20T14:15:09.288Z,47.43
2018-02-20T14:17:35.991Z,44.77
2018-02-20T14:20:02.625Z,51.13
2018-02-20T14:22:29.235Z,44.00
2018-02-20T14:24:55.964Z,49.93
2018-02-20T14:27:22.637Z,45.77
2018-02-20T14:29:49.265Z,46.47
2018-02-20T14:32:15.848Z,51.57
2018-02-20T14:34:42.476Z,51.57
2018-02-20T14:37:09.297Z,44.77
2018-02-20T14:39:35.987Z,47.77
2018-02-20T14:42:02.603Z,47.37
2018-02-20T14:44:29.406Z,48.40
2018-02-20T14:46:56.197Z,54.87
2018-02-20T14:49:22.793Z,52.87
2018-02-20T14:51:49.421Z,60.23
2018-02-20T14:54:16.068Z,53.40
2018-02-20T14:56:42.703Z,59.37
2018-02-20T14:59:09.286Z,60.90
2018-02-20T15:01:35.929Z,48.83
2018-02-20T15:04:02.648Z,55.17
2018-02-20T15:06:29.510Z,58.83
2018-02-20T15:08:56.554Z,57.63
2018-02-20T15:11:23.188Z,57.00
2018-02-20T15:13:49.823Z,61.97
2018-02-20T15:16:16.485Z,58.13
2018-02-20T15:18:43.116Z,61.70
2018-02-20T15:21:09.796Z,60.40
2018-02-20T15:23:36.417Z,60.37
2018-02-20T15:26:03.094Z,59.70
2018-02-20T15:28:29.677Z,61.17
2018-02-20T15:30:56.417Z,58.80
2018-02-20T15:33:23.135Z,56.47
2018-02-20T15:35:49.810Z,67.17
2018-02-20T15:38:16.488Z,64.57
2018-02-20T15:40:43.209Z,67.70
2018-02-20T15:43:09.782Z,56.83
2018-02-20T15:45:36.428Z,63.37
2018-02-20T15:48:03.156Z,63.20
2018-02-20T15:50:29.734Z,61.63
2018-02-20T15:52:56.482Z,62.60
2018-02-20T15:55:23.239Z,64.10
2018-02-20T15:57:49.964Z,64.53
2018-02-20T16:00:16.640Z,59.00
2018-02-20T16:02:43.224Z,70.30
2018-02-20T16:05:09.860Z,69.77
2018-02-20T16:07:36.756Z,64.77
2018-02-20T16:10:03.365Z,74.20
2018-02-20T16:12:30.066Z,67.77
2018-02-20T16:14:56.703Z,64.83
2018-02-20T16:17:23.316Z,68.43
2018-02-20T16:19:49.976Z,66.63
2018-02-20T16:22:16.594Z,64.57
2018-02-20T16:24:43.221Z,77.07
2018-02-20T16:27:09.996Z,68.20
2018-02-20T16:29:36.824Z,63.43
2018-02-20T16:32:03.442Z,65.13
2018-02-20T16:34:30.078Z,73.27
2018-02-20T16:36:56.717Z,68.70
2018-02-20T16:39:23.337Z,74.97
2018-02-20T16:41:49.976Z,73.30
2018-02-20T16:44:16.572Z,65.47
2018-02-20T16:46:43.793Z,66.93
2018-02-20T16:49:10.647Z,68.40
2018-02-20T16:51:37.264Z,69.27
2018-02-20T16:54:04.291Z,63.07
2018-02-20T16:56:31.130Z,63.70
2018-02-20T16:58:57.812Z,67.93
2018-02-20T17:01:24.444Z,71.97
2018-02-20T17:03:51.121Z,64.30
2018-02-20T17:06:18.213Z,71.23
2018-02-20T17:08:44.871Z,66.40
2018-02-20T17:11:11.535Z,61.43
2018-02-20T17:13:38.528Z,63.23
2018-02-20T17:16:12.820Z,63.47
2018-02-20T17:18:39.983Z,61.07
2018-02-20T17:21:06.837Z,71.67
2018-02-20T17:23:33.630Z,69.30
2018-02-20T17:26:00.730Z,68.83
2018-02-20T17:28:27.465Z,59.50
2018-02-20T17:30:55.183Z,63.93
2018-02-20T17:33:21.840Z,56.97
2018-02-20T17:35:48.657Z,63.27
2018-02-20T17:38:15.316Z,60.77
2018-02-20T17:40:43.362Z,70.57
2018-02-20T17:43:10.484Z,66.30
2018-02-20T17:45:37.216Z,69.63
2018-02-20T17:48:03.850Z,62.00
2018-02-20T17:50:30.522Z,63.13
2018-02-20T17:52:57.183Z,66.33
2018-02-20T17:55:23.867Z,68.47
2018-02-20T17:57:50.461Z,66.53
2018-02-20T18:00:17.097Z,60.63
2018-02-20T18:02:43.860Z,65.53
2018-02-20T18:05:10.564Z,58.90
2018-02-20T18:07:37.199Z,69.90
2018-02-20T18:10:03.820Z,62.13
2018-02-20T18:12:30.486Z,68.23
2018-02-20T18:14:57.124Z,69.07
2018-02-20T18:17:23.750Z,66.43
2018-02-20T18:19:50.842Z,67.43
2018-02-20T18:22:17.459Z,71.20
2018-02-20T18:24:44.149Z,61.20
2018-02-20T18:27:10.795Z,61.30
2018-02-20T18:29:37.583Z,73.57
2018-02-20T18:32:04.207Z,68.13
2018-02-20T18:34:30.876Z,75.30
2018-02-20T18:36:57.475Z,69.40
2018-02-20T18:39:24.077Z,69.57
2018-02-20T18:41:51.042Z,68.87
2018-02-20T18:44:17.714Z,70.30
2018-02-20T18:46:45.018Z,68.10
2018-02-20T18:49:11.766Z,69.97
2018-02-20T18:51:38.534Z,68.63
2018-02-20T18:54:05.280Z,69.40
2018-02-20T18:56:32.090Z,78.40
2018-02-20T18:58:58.701Z,66.27
2018-02-20T19:01:25.343Z,72.67
2018-02-20T19:03:51.985Z,66.20
2018-02-20T19:06:18.650Z,66.37
2018-02-20T19:08:45.343Z,67.10
2018-02-20T19:11:15.157Z,66.50
2018-02-20T19:13:41.850Z,65.47
2018-02-20T19:16:09.932Z,59.17
2018-02-20T19:18:36.683Z,58.20
2018-02-20T19:21:03.324Z,57.37
2018-02-20T19:23:30.006Z,58.40
2018-02-20T19:25:56.644Z,62.10
2018-02-20T19:28:23.301Z,51.73
2018-02-20T19:30:49.924Z,62.83
2018-02-20T19:33:16.755Z,61.60
2018-02-20T19:35:43.386Z,66.73
2018-02-20T19:38:10.037Z,64.63
2018-02-20T19:40:36.782Z,63.97
2018-02-20T19:43:04.401Z,56.10
2018-02-20T19:45:31.142Z,62.90
2018-02-20T19:47:57.791Z,64.13
2018-02-20T19:50:24.444Z,62.20
2018-02-20T19:52:55.037Z,66.00
2018-02-20T19:55:23.036Z,61.27
2018-02-20T19:57:49.962Z,64.47
2018-02-20T20:00:18.948Z,71.17
2018-02-20T20:02:46.492Z,61.97
2018-02-20T20:05:14.958Z,73.47
2018-02-20T20:07:41.563Z,70.83
2018-02-20T20:10:08.192Z,69.70
2018-02-20T20:12:34.852Z,68.67
2018-02-20T20:15:01.535Z,62.93
2018-02-20T20:17:28.193Z,72.43
2018-02-20T20:19:54.827Z,73.77
2018-02-20T20:22:21.530Z,73.40
2018-02-20T20:24:48.170Z,77.33
2018-02-20T20:27:14.791Z,73.37
2018-02-20T20:29:41.538Z,71.40
2018-02-20T20:32:08.148Z,78.80
2018-02-20T20:34:34.806Z,78.23
2018-02-20T20:37:01.439Z,74.77
2018-02-20T20:39:28.113Z,70.30
2018-02-20T20:41:54.784Z,79.20
2018-02-20T20:44:21.560Z,74.03
2018-02-20T20:46:48.201Z,78.50
2018-02-20T20:49:14.846Z,78.20
2018-02-20T20:51:41.522Z,82.53
2018-02-20T20:54:08.241Z,70.83
2018-02-20T20:56:34.925Z,79.87
2018-02-20T20:59:01.676Z,81.97
2018-02-20T21:01:28.302Z,78.00
2018-02-20T21:03:54.932Z,78.23
2018-02-20T21:06:21.613Z,84.10
2018-02-20T21:08:48.320Z,82.17
2018-02-20T21:11:14.991Z,87.83
2018-02-20T21:13:41.641Z,80.83
2018-02-20T21:16:08.490Z,91.30
2018-02-20T21:18:35.254Z,90.20
2018-02-20T21:21:01.863Z,89.70
2018-02-20T21:23:28.468Z,91.30
2018-02-20T21:25:55.205Z,93.30
2018-02-20T21:28:21.831Z,89.80
2018-02-20T21:30:48.494Z,95.53
2018-02-20T21:33:15.095Z,91.10
2018-02-20T21:35:41.794Z,96.10
2018-02-20T21:38:08.392Z,94.67
2018-02-20T21:40:35.553Z,99.40
2018-02-20T21:43:02.216Z,94.63
2018-02-20T21:45:28.845Z,100.10
2018-02-20T21:47:55.491Z,93.23
2018-02-20T21:50:22.106Z,88.67
2018-02-20T21:52:48.723Z,93.97
2018-02-20T21:55:15.330Z,95.30
2018-02-20T21:57:41.969Z,88.63
2018-02-20T22:00:08.576Z,93.43
2018-02-20T22:02:35.158Z,96.40
2018-02-20T22:05:01.780Z,92.37
2018-02-20T22:07:28.430Z,107.60
2018-02-20T22:09:55.042Z,105.40
2018-02-20T22:12:21.670Z,106.93
2018-02-20T22:14:48.281Z,105.20
2018-02-20T22:17:14.914Z,348.83
2018-02-20T22:19:41.542Z,102.55
2018-02-20T22:22:08.124Z,106.70
2018-02-20T22:24:34.792Z,113.40
2018-02-20T22:27:01.398Z,108.77
2018-02-20T22:29:28.010Z,103.97
2018-02-20T22:31:54.613Z,104.00
2018-02-20T22:34:21.229Z,112.00
2018-02-20T22:36:47.840Z,110.53
2018-02-20T22:39:14.474Z,109.10
2018-02-20T22:41:41.094Z,117.13
2018-02-20T22:44:07.717Z,110.77
2018-02-20T22:46:34.354Z,105.23
2018-02-20T22:49:00.994Z,106.03
2018-02-20T22:51:27.607Z,109.50
2018-02-20T22:53:54.204Z,113.97
2018-02-20T22:56:20.858Z,117.93
2018-02-20T22:58:47.471Z,111.93
2018-02-20T23:01:14.197Z,113.47
2018-02-20T23:03:40.851Z,120.13
2018-02-20T23:06:07.500Z,118.40
2018-02-20T23:08:34.115Z,107.03
2018-02-20T23:11:00.799Z,125.43
2018-02-20T23:13:28.379Z,107.00
2018-02-20T23:15:55.030Z,118.33
2018-02-20T23:18:21.662Z,109.20
2018-02-20T23:20:48.286Z,114.30
2018-02-20T23:23:14.898Z,123.00
2018-02-20T23:25:41.526Z,115.20
2018-02-20T23:28:08.141Z,116.77
2018-02-20T23:30:34.761Z,115.40
2018-02-20T23:33:01.364Z,115.43
2018-02-20T23:35:27.971Z,110.47
2018-02-20T23:37:54.632Z,122.30
2018-02-20T23:40:21.215Z,113.77
2018-02-20T23:42:47.863Z,121.73
2018-02-20T23:45:14.518Z,121.20
2018-02-20T23:47:41.166Z,115.53
2018-02-20T23:50:07.793Z,108.90
2018-02-20T23:52:34.415Z,116.80
2018-02-20T23:55:01.024Z,108.60
2018-02-20T23:57:27.662Z,118.77
2018-02-20T23:59:54.277Z,120.17
